createdAt,value
2019-03-23T00:04:02.927Z,100.00
2019-03-23T00:09:06.714Z,100.00
2019-03-23T00:14:10.673Z,100.00
2019-03-23T00:19:13.849Z,100.00
2019-03-23T00:24:17.148Z,100.00
2019-03-23T00:29:21.166Z,99.59
2019-03-23T00:34:25.398Z,99.30
2019-03-23T00:39:29.443Z,98.94
2019-03-23T00:44:32.507Z,98.97
2019-03-23T00:49:36.308Z,99.03
2019-03-23T00:54:40.478Z,98.86
2019-03-23T00:59:44.210Z,99.90
2019-03-23T01:04:47.682Z,99.39
2019-03-23T01:09:51.265Z,99.17
2019-03-23T01:14:54.997Z,99.27
2019-03-23T01:19:58.868Z,99.05
2019-03-23T01:25:02.983Z,99.68
2019-03-23T01:30:08.256Z,100.00
2019-03-23T01:35:12.239Z,99.89
2019-03-23T01:40:16.016Z,99.55
2019-03-23T01:45:19.824Z,100.00
2019-03-23T01:50:23.770Z,99.28
2019-03-23T01:55:27.252Z,99.04
2019-03-23T02:00:31.094Z,98.56
2019-03-23T02:05:36.656Z,98.42
2019-03-23T02:10:41.870Z,98.44
2019-03-23T02:15:45.837Z,96.42
2019-03-23T02:20:49.252Z,95.27
2019-03-23T02:25:53.000Z,95.83
2019-03-23T02:30:57.208Z,95.57
2019-03-23T02:36:00.989Z,95.83
2019-03-23T02:41:05.136Z,95.70
2019-03-23T02:46:08.595Z,95.61
2019-03-23T02:51:12.409Z,95.57
2019-03-23T02:56:16.306Z,94.92
2019-03-23T03:01:20.132Z,94.96
2019-03-23T03:06:23.551Z,95.66
2019-03-23T03:11:27.386Z,95.16
2019-03-23T03:16:30.755Z,94.18
2019-03-23T03:21:34.200Z,93.57
2019-03-23T03:26:37.687Z,93.52
2019-03-23T03:31:41.471Z,93.96
2019-03-23T03:36:44.527Z,93.12
2019-03-23T03:41:48.043Z,93.94
2019-03-23T03:46:51.815Z,94.41
2019-03-23T03:51:55.221Z,94.60
2019-03-23T03:56:59.461Z,94.23
2019-03-23T04:02:03.764Z,94.10
2019-03-23T04:07:06.996Z,93.74
2019-03-23T04:12:10.835Z,93.87
2019-03-23T04:17:14.132Z,93.63
2019-03-23T04:22:18.163Z,93.62
2019-03-23T04:27:21.591Z,93.87
2019-03-23T04:32:24.668Z,94.00
2019-03-23T04:37:28.116Z,93.57
2019-03-23T04:42:31.605Z,93.12
2019-03-23T04:47:35.051Z,93.56
2019-03-23T04:52:39.041Z,93.95
2019-03-23T04:57:42.485Z,95.02
2019-03-23T05:02:46.624Z,94.14
2019-03-23T05:07:49.631Z,93.97
2019-03-23T05:12:53.470Z,94.30
2019-03-23T05:17:57.559Z,94.00
2019-03-23T05:23:01.094Z,94.27
2019-03-23T05:28:04.509Z,94.31
2019-03-23T05:33:08.355Z,95.11
2019-03-23T05:38:11.839Z,94.87
2019-03-23T05:43:16.085Z,95.12
2019-03-23T05:48:18.763Z,94.90
2019-03-23T05:53:22.624Z,94.81
2019-03-23T05:58:27.868Z,95.06
2019-03-23T06:03:30.975Z,95.34
2019-03-23T06:08:35.091Z,95.83
2019-03-23T06:13:39.273Z,94.77
2019-03-23T06:18:43.472Z,94.87
2019-03-23T06:23:47.254Z,93.74
2019-03-23T06:28:51.087Z,94.03
2019-03-23T06:33:54.547Z,93.01
2019-03-23T06:39:05.403Z,93.84
2019-03-23T06:44:05.819Z,94.09
2019-03-23T06:49:09.599Z,94.17
2019-03-23T06:54:13.414Z,94.05
2019-03-23T06:59:19.905Z,93.80
2019-03-23T07:04:26.729Z,93.85
2019-03-23T07:09:34.160Z,93.37
2019-03-23T07:14:42.693Z,93.79
2019-03-23T07:19:46.564Z,93.70
2019-03-23T07:24:50.001Z,94.29
2019-03-23T07:29:53.809Z,93.56
2019-03-23T07:34:58.042Z,94.40
2019-03-23T07:40:01.141Z,94.49
2019-03-23T07:45:06.152Z,93.98
2019-03-23T07:50:09.723Z,93.38
2019-03-23T07:55:14.266Z,94.99
2019-03-23T08:00:18.525Z,94.65
2019-03-23T08:05:22.294Z,94.28
2019-03-23T08:10:30.947Z,94.13
2019-03-23T08:15:34.437Z,94.32
2019-03-23T08:20:37.685Z,93.96
2019-03-23T08:25:41.219Z,94.24
2019-03-23T08:30:45.028Z,94.53
2019-03-23T08:35:48.512Z,94.27
2019-03-23T08:40:52.382Z,94.43
2019-03-23T08:45:55.843Z,94.85
2019-03-23T08:50:59.717Z,94.55
2019-03-23T08:56:03.591Z,94.75
2019-03-23T09:01:06.600Z,94.15
2019-03-23T09:06:09.433Z,94.63
2019-03-23T09:11:20.506Z,96.93
2019-03-23T09:16:18.613Z,95.13
2019-03-23T09:21:22.103Z,94.76
2019-03-23T09:26:25.971Z,94.43
2019-03-23T09:31:29.739Z,93.02
2019-03-23T09:36:34.109Z,92.27
2019-03-23T09:41:37.970Z,91.40
2019-03-23T09:46:41.781Z,91.82
2019-03-23T09:51:45.909Z,91.39
2019-03-23T09:56:50.115Z,90.95
2019-03-23T10:01:54.032Z,89.50
2019-03-23T10:06:57.554Z,89.32
2019-03-23T10:12:01.077Z,88.71
2019-03-23T10:17:05.244Z,83.73
2019-03-23T10:22:09.016Z,77.62
2019-03-23T10:27:13.115Z,83.02
2019-03-23T10:32:17.330Z,83.11
2019-03-23T10:37:21.491Z,83.67
2019-03-23T10:42:25.501Z,82.61
2019-03-23T10:47:29.716Z,81.92
2019-03-23T10:52:33.968Z,79.78
2019-03-23T10:57:37.803Z,78.96
2019-03-23T11:02:41.551Z,78.28
2019-03-23T11:07:44.932Z,79.33
2019-03-23T11:12:49.099Z,79.22
2019-03-23T11:17:53.053Z,77.64
2019-03-23T11:22:56.542Z,76.01
2019-03-23T11:28:00.721Z,76.43
2019-03-23T11:33:05.066Z,74.31
2019-03-23T11:38:09.011Z,74.25
2019-03-23T11:43:12.934Z,73.39
2019-03-23T11:48:16.968Z,73.40
2019-03-23T11:53:20.770Z,72.74
2019-03-23T11:58:30.536Z,70.04
2019-03-23T12:03:35.997Z,69.66
2019-03-23T12:08:39.910Z,69.25
2019-03-23T12:13:44.167Z,68.80
2019-03-23T12:18:47.684Z,68.46
2019-03-23T12:23:51.852Z,66.37
2019-03-23T12:28:57.796Z,67.40
2019-03-23T12:34:01.407Z,67.52
2019-03-23T12:39:05.923Z,65.82
2019-03-23T12:44:10.397Z,61.28
2019-03-23T12:49:14.168Z,58.17
2019-03-23T12:54:18.418Z,54.26
2019-03-23T12:59:22.471Z,51.01
2019-03-23T13:04:28.650Z,49.32
2019-03-23T13:09:32.937Z,48.54
2019-03-23T13:14:37.226Z,47.23
2019-03-23T13:19:40.974Z,49.29
2019-03-23T13:24:44.072Z,48.33
2019-03-23T13:29:47.883Z,49.20
2019-03-23T13:34:50.960Z,47.43
2019-03-23T13:39:54.503Z,46.51
2019-03-23T13:44:58.536Z,46.46
2019-03-23T13:50:02.306Z,45.04
2019-03-23T13:55:06.900Z,45.12
2019-03-23T14:00:10.979Z,47.35
2019-03-23T14:05:16.278Z,45.20
2019-03-23T14:10:19.911Z,46.26
2019-03-23T14:15:23.725Z,49.36
2019-03-23T14:20:27.549Z,49.79
2019-03-23T14:25:31.389Z,47.41
2019-03-23T14:30:34.883Z,45.43
2019-03-23T14:35:38.414Z,43.25
2019-03-23T14:40:42.252Z,43.89
2019-03-23T14:45:45.324Z,43.37
2019-03-23T14:50:49.170Z,44.69
2019-03-23T14:55:53.111Z,47.13
2019-03-23T15:00:56.928Z,51.85
2019-03-23T15:06:00.343Z,50.12
2019-03-23T15:11:03.829Z,48.89
2019-03-23T15:16:07.297Z,49.59
2019-03-23T15:21:10.848Z,51.39
2019-03-23T15:26:13.894Z,51.21
2019-03-23T15:31:18.151Z,52.92
2019-03-23T15:36:22.372Z,54.76
2019-03-23T15:41:26.162Z,56.23
2019-03-23T15:46:29.602Z,55.71
2019-03-23T15:51:33.757Z,52.77
2019-03-23T15:56:37.870Z,54.06
2019-03-23T16:01:41.401Z,54.82
2019-03-23T16:06:45.312Z,54.98
2019-03-23T16:11:49.307Z,54.95
2019-03-23T16:16:53.251Z,53.44
2019-03-23T16:21:57.253Z,52.88
2019-03-23T16:27:01.531Z,53.00
2019-03-23T16:32:04.954Z,55.63
2019-03-23T16:37:08.796Z,53.45
2019-03-23T16:42:12.708Z,49.95
2019-03-23T16:47:16.949Z,51.93
2019-03-23T16:52:20.867Z,54.52
2019-03-23T16:57:24.977Z,55.55
2019-03-23T17:02:28.827Z,56.41
2019-03-23T17:07:33.062Z,56.72
2019-03-23T17:12:36.567Z,57.74
2019-03-23T17:17:40.192Z,58.04
2019-03-23T17:22:44.118Z,58.94
2019-03-23T17:27:48.253Z,58.52
2019-03-23T17:32:52.399Z,58.46
2019-03-23T17:37:56.304Z,58.13
2019-03-23T17:43:05.959Z,57.02
2019-03-23T17:48:07.443Z,57.28
2019-03-23T17:53:11.776Z,57.20
2019-03-23T17:58:20.415Z,58.32
2019-03-23T18:03:27.224Z,58.76
2019-03-23T18:08:34.315Z,58.54
2019-03-23T18:13:40.676Z,58.88
2019-03-23T18:18:44.634Z,58.83
2019-03-23T18:23:48.494Z,59.95
2019-03-23T18:28:52.071Z,60.92
2019-03-23T18:34:03.990Z,61.35
2019-03-23T18:39:14.399Z,62.03
2019-03-23T18:44:18.295Z,62.36
2019-03-23T18:49:21.809Z,62.55
2019-03-23T18:54:25.595Z,62.42
2019-03-23T18:59:29.652Z,62.51
2019-03-23T19:04:36.677Z,62.09
2019-03-23T19:09:41.924Z,61.95
2019-03-23T19:14:46.343Z,62.75
2019-03-23T19:19:50.324Z,63.45
2019-03-23T19:24:59.329Z,64.18
2019-03-23T19:30:06.846Z,65.24
2019-03-23T19:35:11.063Z,65.37
2019-03-23T19:40:20.439Z,65.40
2019-03-23T19:45:30.314Z,65.42
2019-03-23T19:50:36.195Z,65.51
2019-03-23T19:55:41.509Z,66.27
2019-03-23T20:00:57.412Z,67.80
2019-03-23T20:06:06.000Z,69.18
2019-03-23T20:11:14.112Z,70.37
2019-03-23T20:16:20.292Z,71.40
2019-03-23T20:21:26.352Z,72.28
2019-03-23T20:26:30.601Z,72.79
2019-03-23T20:31:35.808Z,73.02
2019-03-23T20:36:39.990Z,73.63
2019-03-23T20:41:44.608Z,74.45
2019-03-23T20:46:51.925Z,75.01
2019-03-23T20:51:58.265Z,75.65
2019-03-23T20:57:02.749Z,75.86
2019-03-23T21:02:07.672Z,78.34
2019-03-23T21:07:11.750Z,77.41
2019-03-23T21:12:15.947Z,76.97
2019-03-23T21:17:21.504Z,76.25
2019-03-23T21:22:25.998Z,76.30
2019-03-23T21:27:30.321Z,76.21
2019-03-23T21:32:34.088Z,76.71
2019-03-23T21:37:37.256Z,79.64
2019-03-23T21:42:41.803Z,79.32
2019-03-23T21:47:46.020Z,78.51
2019-03-23T21:52:49.962Z,78.63
2019-03-23T21:57:56.894Z,79.03
2019-03-23T22:03:01.375Z,79.04
2019-03-23T22:08:05.300Z,79.39
2019-03-23T22:13:09.589Z,79.80
2019-03-23T22:18:14.488Z,80.25
2019-03-23T22:23:18.409Z,79.50
2019-03-23T22:28:22.252Z,79.25
2019-03-23T22:33:26.088Z,79.50
2019-03-23T22:38:29.958Z,81.69
2019-03-23T22:43:33.168Z,80.64
2019-03-23T22:48:37.034Z,80.50
2019-03-23T22:53:40.743Z,82.06
2019-03-23T22:58:44.638Z,83.00
2019-03-23T23:03:50.244Z,81.26
2019-03-23T23:08:54.485Z,80.48
2019-03-23T23:13:58.306Z,80.63
2019-03-23T23:19:01.797Z,81.04
2019-03-23T23:24:05.751Z,80.53
2019-03-23T23:29:10.541Z,82.83
2019-03-23T23:34:13.657Z,81.84
2019-03-23T23:39:17.207Z,80.69
2019-03-23T23:44:20.828Z,81.78
2019-03-23T23:49:24.903Z,81.14
2019-03-23T23:54:29.243Z,80.31
2019-03-23T23:59:33.436Z,81.21
